Time;durP1;ratioP1;P1;durP2;ratioP2;P2;SDS_P1;SDS_P2;PMS_P1;PMS_P2;Temp;Humidity;BMP_temperature;BMP_pressure;BME280_temperature;BME280_humidity;BME280_pressure;Samples;Min_cycle;Max_cycle;Signal;HPM_P1;HPM_P2
2021/10/22 00:00:08;;;;;;;12.77;8.40;;;7.60;99.90;;;;;;5073230;28;20957;-85
2021/10/22 00:02:35;;;;;;;13.03;8.03;;;7.50;99.90;;;;;;5074060;28;20450;-86
2021/10/22 00:05:07;;;;;;;23.90;10.90;;;7.40;99.90;;;;;;5074234;28;20504;-86
2021/10/22 00:07:34;;;;;;;22.97;15.67;;;7.50;99.90;;;;;;5040111;28;20458;-86
2021/10/22 00:10:03;;;;;;;20.60;15.70;;;7.40;99.90;;;;;;5074093;28;20862;-86
2021/10/22 00:12:30;;;;;;;19.03;17.07;;;7.30;99.90;;;;;;5073876;28;20898;-87
2021/10/22 00:14:57;;;;;;;22.77;20.30;;;7.20;99.90;;;;;;5072847;28;20854;-85
2021/10/22 00:17:24;;;;;;;33.87;31.10;;;7.20;99.90;;;;;;5074073;28;20901;-86
2021/10/22 00:19:53;;;;;;;55.93;52.07;;;7.20;99.90;;;;;;5073878;28;20520;-85
2021/10/22 00:22:21;;;;;;;71.70;67.63;;;7.10;99.90;;;;;;5073891;28;20938;-85
2021/10/22 00:24:48;;;;;;;74.93;70.47;;;7.10;99.90;;;;;;5073728;28;20506;-86
2021/10/22 00:27:15;;;;;;;89.63;85.87;;;7.20;99.90;;;;;;5073591;28;20937;-86
2021/10/22 00:29:42;;;;;;;89.50;85.33;;;7.10;99.90;;;;;;5072511;28;20536;-86
2021/10/22 00:32:09;;;;;;;113.87;109.03;;;6.90;99.90;;;;;;5073713;28;20461;-86
2021/10/22 00:34:36;;;;;;;148.63;143.13;;;6.80;99.90;;;;;;5073468;28;20485;-86
2021/10/22 00:37:04;;;;;;;217.67;209.07;;;6.50;99.90;;;;;;5073431;28;20527;-86
2021/10/22 00:39:33;;;;;;;304.50;293.13;;;6.30;99.90;;;;;;5073432;28;20675;-86
2021/10/22 00:42:03;;;;;;;392.83;376.83;;;6.40;99.90;;;;;;5073469;28;20450;-86
2021/10/22 00:44:30;;;;;;;486.70;466.20;;;6.30;99.90;;;;;;5072650;28;20447;-86
2021/10/22 00:46:59;;;;;;;487.37;466.73;;;6.40;99.90;;;;;;5073217;28;20545;-85
2021/10/22 00:49:26;;;;;;;504.00;482.47;;;6.50;99.90;;;;;;5073467;28;20455;-85
2021/10/22 00:51:55;;;;;;;474.50;454.43;;;6.60;99.90;;;;;;5073273;28;20454;-86
2021/10/22 00:54:22;;;;;;;454.43;435.03;;;6.50;99.90;;;;;;5073198;28;21559;-86
2021/10/22 00:56:50;;;;;;;483.40;462.23;;;6.50;99.90;;;;;;5073175;28;20453;-86
2021/10/22 00:59:18;;;;;;;426.70;408.57;;;6.60;99.90;;;;;;5073213;28;20508;-85
2021/10/22 01:01:47;;;;;;;427.07;408.97;;;6.50;99.90;;;;;;5071702;28;20447;-86
2021/10/22 01:04:14;;;;;;;455.07;436.87;;;6.40;99.90;;;;;;5073372;28;20486;-86
2021/10/22 01:06:42;;;;;;;483.70;463.20;;;6.40;99.90;;;;;;5073178;28;20454;-86
2021/10/22 01:09:10;;;;;;;502.60;481.60;;;6.50;99.90;;;;;;5072951;28;20486;-85
2021/10/22 01:11:38;;;;;;;476.37;456.57;;;6.60;99.90;;;;;;5073108;28;20479;-86
2021/10/22 01:14:10;;;;;;;473.93;453.87;;;6.50;99.90;;;;;;5072847;28;20521;-83
2021/10/22 01:16:39;;;;;;;479.27;459.17;;;6.40;99.90;;;;;;5071598;28;20450;-86
2021/10/22 01:19:06;;;;;;;484.17;463.63;;;6.40;99.90;;;;;;5069944;28;20446;-86
2021/10/22 01:21:35;;;;;;;503.07;481.40;;;6.40;99.90;;;;;;5072833;28;20488;-86
2021/10/22 01:24:03;;;;;;;510.40;488.43;;;6.30;99.90;;;;;;5072970;28;20474;-85
2021/10/22 01:26:30;;;;;;;530.60;507.50;;;6.20;99.90;;;;;;5072784;28;20453;-85
2021/10/22 01:28:59;;;;;;;539.87;516.20;;;6.20;99.90;;;;;;5072640;28;20530;-86
2021/10/22 01:31:26;;;;;;;558.63;532.83;;;6.10;99.90;;;;;;5071771;28;20780;-85
2021/10/22 01:33:53;;;;;;;603.87;573.97;;;5.90;99.90;;;;;;5072670;28;20442;-85
2021/10/22 01:36:20;;;;;;;620.90;589.20;;;6.00;99.90;;;;;;5072968;28;20537;-85
2021/10/22 01:38:48;;;;;;;627.93;595.37;;;5.80;99.90;;;;;;5072801;28;20486;-85
2021/10/22 01:41:15;;;;;;;653.30;617.60;;;5.80;99.90;;;;;;5072957;28;20534;-86
2021/10/22 01:43:44;;;;;;;661.20;623.93;;;5.70;99.90;;;;;;5072736;28;20459;-85
2021/10/22 01:46:11;;;;;;;666.33;626.80;;;5.80;99.90;;;;;;5071435;28;20450;-86
2021/10/22 01:48:38;;;;;;;670.33;630.70;;;5.90;99.90;;;;;;5072712;28;20453;-85
2021/10/22 01:51:05;;;;;;;668.90;629.30;;;5.80;99.90;;;;;;5072607;28;20504;-86
2021/10/22 01:53:32;;;;;;;674.03;634.13;;;6.00;99.90;;;;;;5072547;28;20450;-86
2021/10/22 01:56:01;;;;;;;664.13;625.07;;;5.80;99.90;;;;;;5072396;28;20486;-85
2021/10/22 01:58:28;;;;;;;652.43;613.70;;;5.80;99.90;;;;;;5072513;28;20455;-86
2021/10/22 02:00:55;;;;;;;646.87;610.47;;;5.80;99.90;;;;;;5071405;28;20497;-86
2021/10/22 02:03:22;;;;;;;636.57;600.90;;;5.80;99.90;;;;;;5072539;28;20549;-87
2021/10/22 02:05:48;;;;;;;638.73;603.20;;;5.90;99.90;;;;;;5072486;28;20542;-86
2021/10/22 02:08:15;;;;;;;634.77;599.50;;;5.90;99.90;;;;;;5072356;28;20450;-86
2021/10/22 02:10:42;;;;;;;622.07;588.07;;;5.90;99.90;;;;;;5072284;28;20993;-86
2021/10/22 02:13:10;;;;;;;617.27;585.07;;;5.80;99.90;;;;;;5074626;28;20964;-86
2021/10/22 02:15:38;;;;;;;621.83;588.10;;;5.70;99.90;;;;;;5075091;28;20488;-87
2021/10/22 02:18:04;;;;;;;604.23;572.93;;;5.60;99.90;;;;;;5076132;28;20454;-86
2021/10/22 02:20:32;;;;;;;599.90;569.93;;;5.70;99.90;;;;;;5076117;28;20454;-86
2021/10/22 02:22:59;;;;;;;600.43;569.93;;;5.60;99.90;;;;;;5076046;28;20474;-86
2021/10/22 02:25:26;;;;;;;589.10;559.80;;;5.60;99.90;;;;;;5076163;28;20451;-86
2021/10/22 02:27:55;;;;;;;540.23;514.90;;;5.70;99.90;;;;;;5076196;28;20501;-85
2021/10/22 02:30:25;;;;;;;524.50;501.50;;;5.60;99.90;;;;;;5074852;28;20478;-86
2021/10/22 02:32:51;;;;;;;503.13;481.07;;;5.80;99.90;;;;;;5075850;28;20454;-86
2021/10/22 02:35:19;;;;;;;473.33;454.07;;;5.70;99.90;;;;;;5075788;28;20492;-86
2021/10/22 02:37:46;;;;;;;465.33;447.17;;;5.60;99.90;;;;;;5075628;28;20553;-86
2021/10/22 02:40:13;;;;;;;455.20;435.93;;;5.60;99.90;;;;;;5075693;28;20459;-86
2021/10/22 02:42:41;;;;;;;435.60;418.17;;;5.60;99.90;;;;;;5075615;28;20486;-86
2021/10/22 02:45:08;;;;;;;420.83;403.93;;;5.60;99.90;;;;;;5074538;28;20454;-86
2021/10/22 02:47:37;;;;;;;400.40;385.07;;;5.60;99.90;;;;;;5075738;28;20489;-86
2021/10/22 02:50:07;;;;;;;377.77;363.13;;;5.60;99.90;;;;;;5075542;28;20537;-86
2021/10/22 02:52:34;;;;;;;333.97;321.30;;;5.70;99.90;;;;;;5075415;28;20530;-86
2021/10/22 02:55:01;;;;;;;311.90;300.83;;;5.70;99.90;;;;;;5075399;28;20873;-86
2021/10/22 02:57:28;;;;;;;320.43;308.87;;;5.50;99.90;;;;;;5075472;28;20490;-86
2021/10/22 02:59:55;;;;;;;344.00;331.17;;;5.50;99.90;;;;;;5074467;28;20458;-86
2021/10/22 03:02:24;;;;;;;360.27;347.57;;;5.40;99.90;;;;;;5075377;28;20545;-86
2021/10/22 03:04:52;;;;;;;364.00;349.97;;;5.50;99.90;;;;;;5075251;28;20508;-86
2021/10/22 03:07:19;;;;;;;342.73;329.97;;;5.60;99.90;;;;;;5075361;28;20541;-85
2021/10/22 03:09:46;;;;;;;313.37;301.50;;;5.60;99.90;;;;;;5075229;28;20995;-86
2021/10/22 03:12:13;;;;;;;299.43;288.43;;;5.60;99.90;;;;;;5075173;28;20454;-86
2021/10/22 03:14:40;;;;;;;298.30;286.93;;;5.50;99.90;;;;;;5074014;28;20470;-86
2021/10/22 03:17:07;;;;;;;305.60;294.70;;;5.50;99.90;;;;;;5075362;28;20458;-86
2021/10/22 03:19:34;;;;;;;309.50;298.33;;;5.30;99.90;;;;;;5075190;28;20454;-87
2021/10/22 03:22:02;;;;;;;309.63;298.70;;;5.40;99.90;;;;;;5075039;28;20465;-86
2021/10/22 03:24:29;;;;;;;313.40;302.10;;;5.40;99.90;;;;;;5074682;28;20493;-85
2021/10/22 03:26:56;;;;;;;318.00;305.70;;;5.30;99.90;;;;;;5075084;28;20523;-86
2021/10/22 03:29:23;;;;;;;319.90;307.97;;;5.30;99.90;;;;;;5075033;28;20470;-86
2021/10/22 03:31:50;;;;;;;321.27;310.07;;;5.40;99.90;;;;;;5073870;28;20545;-86
2021/10/22 03:34:17;;;;;;;338.17;324.37;;;5.30;99.90;;;;;;5075539;28;20477;-85
2021/10/22 03:36:44;;;;;;;324.50;312.73;;;5.20;99.90;;;;;;5074726;28;20512;-86
2021/10/22 03:39:13;;;;;;;344.40;331.00;;;5.10;99.90;;;;;;5074734;28;20447;-87
2021/10/22 03:41:40;;;;;;;354.47;340.90;;;5.10;99.90;;;;;;5074623;28;20478;-85
2021/10/22 03:44:06;;;;;;;353.57;340.07;;;5.10;99.90;;;;;;5074897;28;20454;-87
2021/10/22 03:46:33;;;;;;;372.80;358.70;;;5.00;99.90;;;;;;5073420;28;20489;-85
2021/10/22 03:49:00;;;;;;;385.27;369.93;;;4.90;99.90;;;;;;5074514;28;20458;-86
2021/10/22 03:51:27;;;;;;;374.97;360.67;;;4.90;99.90;;;;;;5074440;28;20458;-86
2021/10/22 03:53:54;;;;;;;376.13;361.57;;;5.00;99.90;;;;;;5074370;28;20533;-85
2021/10/22 03:56:23;;;;;;;372.83;358.10;;;4.90;99.90;;;;;;5074328;28;20522;-85
2021/10/22 03:58:56;;;;;;;364.67;350.33;;;5.00;99.90;;;;;;5074555;28;20483;-87
2021/10/22 04:01:24;;;;;;;306.23;295.10;;;5.00;99.90;;;;;;5072902;28;20648;-85
2021/10/22 04:03:51;;;;;;;268.97;257.87;;;5.20;99.90;;;;;;5074101;28;20946;-84
2021/10/22 04:06:18;;;;;;;228.53;220.13;;;5.20;99.90;;;;;;5074146;28;20494;-83
2021/10/22 04:08:45;;;;;;;224.87;216.53;;;5.20;99.90;;;;;;5074114;28;20455;-85
2021/10/22 04:11:12;;;;;;;191.63;184.50;;;5.30;99.90;;;;;;5074025;28;20459;-83
2021/10/22 04:13:40;;;;;;;158.80;152.50;;;5.20;99.90;;;;;;5073944;28;20455;-84
2021/10/22 04:16:09;;;;;;;157.17;151.47;;;5.20;99.90;;;;;;5072663;28;20555;-85
2021/10/22 04:18:36;;;;;;;158.63;152.07;;;5.20;99.90;;;;;;5074094;28;20455;-84
2021/10/22 04:21:03;;;;;;;143.27;137.60;;;5.20;99.90;;;;;;5073442;28;20526;-83
2021/10/22 04:23:31;;;;;;;125.20;119.87;;;5.30;99.90;;;;;;5073783;28;20478;-85
2021/10/22 04:25:57;;;;;;;126.13;120.83;;;5.20;99.90;;;;;;5073701;28;20447;-84
2021/10/22 04:28:24;;;;;;;125.03;120.13;;;5.10;99.90;;;;;;5073773;28;20458;-87
2021/10/22 04:30:53;;;;;;;132.63;126.87;;;5.20;99.90;;;;;;5072460;28;20595;-85
2021/10/22 04:33:19;;;;;;;145.00;138.50;;;5.10;99.90;;;;;;5073700;28;20508;-85
2021/10/22 04:35:46;;;;;;;136.63;131.13;;;5.10;99.90;;;;;;5072745;28;20478;-85
2021/10/22 04:40:56;;;;;;;128.47;123.30;;;5.10;99.90;;;;;;5072384;28;20479;-85
2021/10/22 04:43:23;;;;;;;121.80;116.30;;;5.10;99.90;;;;;;5073414;28;20483;-85
2021/10/22 04:45:54;;;;;;;106.13;101.63;;;5.20;99.90;;;;;;5072276;28;20452;-85
2021/10/22 04:48:21;;;;;;;121.93;116.53;;;5.20;99.90;;;;;;5073382;28;20451;-85
2021/10/22 04:50:50;;;;;;;121.27;116.80;;;5.10;99.90;;;;;;5073350;28;20980;-85
2021/10/22 04:53:18;;;;;;;125.40;120.90;;;5.10;99.90;;;;;;5073282;28;20455;-85
2021/10/22 04:55:45;;;;;;;127.13;121.53;;;5.10;99.90;;;;;;5073081;28;20851;-85
2021/10/22 04:58:12;;;;;;;116.00;110.47;;;5.20;99.90;;;;;;5073477;28;20479;-85
2021/10/22 05:00:39;;;;;;;95.37;90.37;;;5.30;99.90;;;;;;5072090;28;20455;-85
2021/10/22 05:03:07;;;;;;;86.93;82.03;;;5.30;99.90;;;;;;5073192;28;20450;-84
2021/10/22 05:05:34;;;;;;;82.07;77.73;;;5.30;99.90;;;;;;5073217;28;21016;-83
2021/10/22 05:08:01;;;;;;;84.83;80.00;;;5.20;99.90;;;;;;5073251;28;20546;-85
2021/10/22 05:10:28;;;;;;;89.43;85.40;;;5.20;99.90;;;;;;5073086;28;20458;-85
2021/10/22 05:12:55;;;;;;;65.90;62.40;;;5.20;99.90;;;;;;5073055;28;20465;-85
2021/10/22 05:15:23;;;;;;;64.87;61.40;;;5.20;99.90;;;;;;5071838;28;20496;-86
2021/10/22 05:17:50;;;;;;;59.53;55.93;;;5.30;99.90;;;;;;5072934;28;20984;-85
2021/10/22 05:20:19;;;;;;;51.40;48.70;;;5.40;99.90;;;;;;5073016;28;20454;-85
2021/10/22 05:22:46;;;;;;;47.70;44.50;;;5.30;99.90;;;;;;5072747;28;21007;-85
2021/10/22 05:25:13;;;;;;;51.13;47.97;;;5.30;99.90;;;;;;5072893;28;20454;-86
2021/10/22 05:27:41;;;;;;;42.73;40.30;;;5.30;99.90;;;;;;5072939;28;20474;-85
2021/10/22 05:30:09;;;;;;;40.47;37.57;;;5.40;99.90;;;;;;5071683;28;20486;-85
2021/10/22 05:35:13;;;;;;;42.80;40.30;;;5.30;99.90;;;;;;5052244;22;21029;-82
2021/10/22 05:37:41;;;;;;;39.93;37.33;;;5.40;99.90;;;;;;5001102;28;20447;-85
2021/10/22 05:40:09;;;;;;;43.13;40.67;;;5.40;99.90;;;;;;5052548;28;20482;-86
2021/10/22 05:42:36;;;;;;;43.40;40.30;;;5.30;99.90;;;;;;5052739;28;20459;-87
2021/10/22 05:45:03;;;;;;;40.87;36.93;;;5.30;99.90;;;;;;5051617;28;20498;-85
2021/10/22 05:47:30;;;;;;;36.07;33.77;;;5.40;99.90;;;;;;5055545;28;20957;-86
2021/10/22 05:49:57;;;;;;;35.23;32.53;;;5.30;99.90;;;;;;5056799;28;20534;-84
2021/10/22 05:52:26;;;;;;;33.17;31.33;;;5.40;99.90;;;;;;5056878;28;20447;-86
2021/10/22 05:54:54;;;;;;;32.90;30.40;;;5.40;99.90;;;;;;5056704;28;20505;-85
2021/10/22 05:57:21;;;;;;;28.97;26.40;;;5.20;99.90;;;;;;5056521;28;20574;-85
2021/10/22 05:59:48;;;;;;;22.07;20.27;;;5.30;99.90;;;;;;5055478;28;21359;-86
2021/10/22 06:02:15;;;;;;;18.43;16.47;;;5.40;99.90;;;;;;5056361;28;20538;-87
2021/10/22 06:04:42;;;;;;;18.00;16.10;;;5.40;99.90;;;;;;5056443;28;20505;-86
2021/10/22 06:07:09;;;;;;;22.17;15.00;;;5.30;99.90;;;;;;5056500;28;20992;-85
2021/10/22 06:09:38;;;;;;;16.80;12.07;;;5.30;99.90;;;;;;5056447;28;20459;-85
2021/10/22 06:12:07;;;;;;;14.80;9.87;;;5.30;99.90;;;;;;5056373;28;20466;-87
2021/10/22 06:14:34;;;;;;;13.47;9.77;;;5.40;99.90;;;;;;5055250;28;20451;-86
2021/10/22 06:17:02;;;;;;;13.97;8.57;;;5.50;99.90;;;;;;5055960;28;20482;-87
2021/10/22 06:19:33;;;;;;;12.43;7.03;;;5.60;99.90;;;;;;5056469;28;20463;-87
2021/10/22 06:22:17;;;;;;;17.93;6.67;;;5.50;99.90;;;;;;5056115;28;20569;-89
2021/10/22 06:24:44;;;;;;;14.73;5.83;;;5.50;99.90;;;;;;5056560;28;20839;-90
2021/10/22 06:27:13;;;;;;;16.63;6.63;;;5.60;99.90;;;;;;5056529;28;20455;-87
2021/10/22 06:29:41;;;;;;;9.47;6.10;;;5.60;99.90;;;;;;5055219;28;20455;-88
2021/10/22 06:32:10;;;;;;;9.20;5.70;;;5.50;99.90;;;;;;5056092;28;20858;-87
2021/10/22 06:34:37;;;;;;;14.37;6.10;;;5.60;99.90;;;;;;5055858;28;20858;-86
2021/10/22 06:37:04;;;;;;;12.70;6.70;;;5.70;99.90;;;;;;5055757;28;20483;-86
2021/10/22 06:39:33;;;;;;;15.50;5.60;;;5.70;99.90;;;;;;5055872;28;20463;-86
2021/10/22 06:42:00;;;;;;;13.33;4.93;;;5.80;99.90;;;;;;5055745;28;20455;-86
2021/10/22 06:44:29;;;;;;;15.17;5.80;;;5.80;99.90;;;;;;5055692;28;20465;-86
2021/10/22 06:46:56;;;;;;;14.63;5.50;;;5.90;99.90;;;;;;5055002;28;20451;-86
2021/10/22 06:49:23;;;;;;;9.60;4.57;;;6.00;99.90;;;;;;5055140;28;20451;-89
2021/10/22 06:51:51;;;;;;;18.60;5.63;;;6.00;99.90;;;;;;5055732;28;20487;-88
2021/10/22 06:54:18;;;;;;;16.37;4.97;;;6.00;99.90;;;;;;5055632;28;20518;-87
2021/10/22 06:56:45;;;;;;;10.70;4.57;;;6.00;99.90;;;;;;5056761;28;20487;-80
2021/10/22 06:59:14;;;;;;;10.97;4.00;;;6.00;99.90;;;;;;5055423;28;20509;-89
2021/10/22 07:01:43;;;;;;;12.07;3.63;;;6.10;99.90;;;;;;5055056;28;20505;-89
2021/10/22 07:04:11;;;;;;;14.40;4.00;;;6.20;99.90;;;;;;5055924;28;20448;-88
2021/10/22 07:09:24;;;;;;;14.57;3.60;;;6.30;99.90;;;;;;5055764;28;20806;-88
2021/10/22 07:11:51;;;;;;;10.73;3.70;;;6.50;99.90;;;;;;5055652;28;20542;-89
2021/10/22 07:14:18;;;;;;;9.63;3.37;;;6.50;99.90;;;;;;5056095;28;20451;-89
2021/10/22 07:16:46;;;;;;;17.73;3.63;;;6.50;99.90;;;;;;5054757;28;20495;-88
2021/10/22 07:19:13;;;;;;;8.40;2.83;;;6.60;99.90;;;;;;5056139;28;20523;-90
2021/10/22 07:21:43;;;;;;;8.53;3.73;;;6.80;99.90;;;;;;5055783;28;20514;-86
2021/10/22 07:24:17;;;;;;;9.87;3.30;;;6.80;99.90;;;;;;5055871;28;20448;-89
2021/10/22 07:26:44;;;;;;;12.37;5.13;;;6.90;99.90;;;;;;5055040;28;20534;-88
2021/10/22 07:29:11;;;;;;;16.23;3.97;;;6.80;99.90;;;;;;5053511;28;20517;-89
2021/10/22 07:31:38;;;;;;;12.70;3.23;;;6.90;99.90;;;;;;5052906;28;20447;-89
2021/10/22 07:34:07;;;;;;;17.90;4.20;;;7.00;99.90;;;;;;5054034;28;20468;-84
2021/10/22 07:36:35;;;;;;;13.63;3.87;;;7.00;99.90;;;;;;5052200;28;20908;-90
2021/10/22 07:39:02;;;;;;;8.03;2.60;;;7.00;99.90;;;;;;5053987;28;20892;-89
2021/10/22 07:41:29;;;;;;;13.80;4.17;;;7.10;99.90;;;;;;5053674;28;20558;-88
2021/10/22 07:43:56;;;;;;;7.03;2.90;;;7.20;99.90;;;;;;5054190;28;20869;-88
2021/10/22 07:46:23;;;;;;;9.77;3.37;;;7.30;99.90;;;;;;5053725;28;20452;-88
2021/10/22 07:48:49;;;;;;;14.20;3.60;;;7.50;99.90;;;;;;5054933;28;20855;-89
2021/10/22 07:51:18;;;;;;;12.70;3.87;;;7.60;99.90;;;;;;5055187;28;20455;-88
2021/10/22 07:53:44;;;;;;;12.17;3.73;;;7.80;99.90;;;;;;5054725;28;20459;-89
2021/10/22 07:56:11;;;;;;;12.03;3.30;;;7.70;99.90;;;;;;5055070;28;20565;-89
2021/10/22 07:58:38;;;;;;;13.33;2.80;;;7.90;99.90;;;;;;5054650;28;20462;-89
2021/10/22 08:01:05;;;;;;;17.10;3.90;;;8.20;99.90;;;;;;5054181;28;20509;-90
2021/10/22 08:03:33;;;;;;;13.83;3.13;;;8.30;96.80;;;;;;5056258;28;20958;-91
2021/10/22 08:06:00;;;;;;;8.33;2.70;;;8.30;95.50;;;;;;5055077;28;20452;-90
2021/10/22 08:08:28;;;;;;;9.97;2.90;;;8.30;94.10;;;;;;5054661;28;20491;-88
2021/10/22 08:10:55;;;;;;;8.23;2.57;;;8.20;95.60;;;;;;5053757;28;20901;-89
2021/10/22 08:13:22;;;;;;;11.30;3.53;;;8.30;97.40;;;;;;5054569;28;20967;-89
2021/10/22 08:15:49;;;;;;;11.03;2.80;;;8.30;94.30;;;;;;5053418;28;20456;-90
2021/10/22 08:18:18;;;;;;;10.17;2.50;;;8.20;94.80;;;;;;5054249;28;20549;-89
2021/10/22 08:20:50;;;;;;;10.80;2.80;;;8.30;94.70;;;;;;5054501;28;20483;-89
2021/10/22 08:23:17;;;;;;;7.57;2.93;;;8.50;95.20;;;;;;5054366;28;20456;-88
2021/10/22 08:25:46;;;;;;;13.30;2.90;;;8.40;94.80;;;;;;5054958;28;20872;-89
2021/10/22 08:28:13;;;;;;;9.50;3.07;;;8.60;93.20;;;;;;5054297;28;20466;-91
2021/10/22 08:30:40;;;;;;;10.97;2.57;;;8.60;94.70;;;;;;5053474;28;20942;-89
2021/10/22 08:33:10;;;;;;;7.27;2.53;;;8.80;91.00;;;;;;5054452;28;20570;-87
2021/10/22 08:35:37;;;;;;;8.40;2.80;;;8.80;91.70;;;;;;5054230;28;20538;-90
2021/10/22 08:38:06;;;;;;;9.80;2.40;;;8.90;90.60;;;;;;5054363;28;20562;-91
2021/10/22 08:40:33;;;;;;;10.53;2.30;;;9.10;87.20;;;;;;5054388;28;20462;-90
2021/10/22 08:43:01;;;;;;;12.80;2.80;;;9.30;85.90;;;;;;5054204;28;20483;-90
2021/10/22 08:45:29;;;;;;;9.27;2.73;;;9.50;82.40;;;;;;5053078;28;20938;-90
2021/10/22 08:47:56;;;;;;;7.13;2.47;;;9.60;80.10;;;;;;5053943;28;20958;-90
2021/10/22 08:50:23;;;;;;;11.57;2.67;;;10.00;77.90;;;;;;5053869;28;20974;-90
2021/10/22 08:52:52;;;;;;;10.90;3.17;;;10.00;75.40;;;;;;5054154;28;20487;-89
2021/10/22 08:55:19;;;;;;;11.33;2.80;;;9.90;73.20;;;;;;5054224;28;20943;-89
2021/10/22 08:57:48;;;;;;;10.80;2.70;;;9.90;73.60;;;;;;5053738;28;20578;-89
2021/10/22 09:00:19;;;;;;;16.53;3.20;;;10.00;74.70;;;;;;5053590;28;20539;-90
2021/10/22 09:02:48;;;;;;;10.20;3.17;;;10.00;78.60;;;;;;5054569;28;20463;-90
2021/10/22 09:05:16;;;;;;;10.30;3.30;;;10.00;76.90;;;;;;5053839;28;20539;-89
2021/10/22 09:07:45;;;;;;;10.73;2.70;;;9.70;76.00;;;;;;5053658;28;20543;-89
2021/10/22 09:10:15;;;;;;;10.27;2.93;;;9.70;77.70;;;;;;5053347;28;20541;-90
2021/10/22 09:12:45;;;;;;;10.30;2.47;;;9.90;82.00;;;;;;5053759;28;20479;-88
2021/10/22 09:15:13;;;;;;;9.13;2.33;;;10.20;74.60;;;;;;5052428;28;20968;-90
2021/10/22 09:17:42;;;;;;;11.40;2.90;;;10.30;74.10;;;;;;5053885;28;20511;-90
2021/10/22 09:20:13;;;;;;;11.23;2.53;;;10.50;72.80;;;;;;5053902;28;20479;-90
2021/10/22 09:22:40;;;;;;;14.00;3.20;;;10.80;69.10;;;;;;5053656;28;20911;-90
2021/10/22 09:25:10;;;;;;;14.47;3.50;;;11.10;69.10;;;;;;5053873;28;20828;-88
2021/10/22 09:27:44;;;;;;;9.23;2.77;;;10.90;66.30;;;;;;5053270;28;20491;-87
2021/10/22 09:30:29;;;;;;;9.40;3.20;;;10.80;67.40;;;;;;5051765;28;20559;-89
2021/10/22 09:33:01;;;;;;;9.73;3.50;;;10.80;70.70;;;;;;5053000;28;20436;-90
2021/10/22 09:35:40;;;;;;;13.83;2.77;;;10.70;71.70;;;;;;5053076;28;20451;-89
2021/10/22 09:38:10;;;;;;;7.60;2.57;;;10.50;74.80;;;;;;5053105;28;20487;-88
2021/10/22 09:40:38;;;;;;;9.60;2.90;;;10.60;75.70;;;;;;5052999;28;20520;-89
2021/10/22 09:43:13;;;;;;;10.10;2.70;;;11.00;72.30;;;;;;5053110;28;20503;-89
2021/10/22 09:45:42;;;;;;;16.37;3.00;;;11.60;69.70;;;;;;5051918;28;20494;-89
2021/10/22 09:48:27;;;;;;;11.20;2.63;;;11.70;62.50;;;;;;5052766;28;20455;-88
2021/10/22 09:50:56;;;;;;;9.40;2.60;;;12.00;62.70;;;;;;5053043;28;20859;-88
2021/10/22 09:53:27;;;;;;;7.20;2.30;;;11.90;58.40;;;;;;5053021;28;20466;-90
2021/10/22 09:56:08;;;;;;;9.83;3.00;;;12.10;57.10;;;;;;5052333;28;20535;-84
2021/10/22 10:01:48;;;;;;;13.47;3.07;;;11.60;60.10;;;;;;5055108;28;20484;-81
2021/10/22 10:04:45;;;;;;;10.80;2.33;;;11.40;62.20;;;;;;5052789;28;20455;-80
2021/10/22 10:07:14;;;;;;;9.57;2.87;;;11.50;62.30;;;;;;5054665;28;21133;-87
2021/10/22 10:09:42;;;;;;;15.33;2.80;;;11.30;61.10;;;;;;5052589;28;20535;-86
2021/10/22 10:12:09;;;;;;;7.37;2.40;;;11.00;62.00;;;;;;5052470;28;20811;-87
2021/10/22 10:14:51;;;;;;;9.37;2.80;;;11.30;63.40;;;;;;5056284;28;20513;-86
2021/10/22 10:17:22;;;;;;;9.80;3.03;;;11.80;60.80;;;;;;5050837;28;20863;-84
2021/10/22 10:20:02;;;;;;;7.30;2.60;;;11.90;59.60;;;;;;5052268;28;20560;-87
2021/10/22 10:22:32;;;;;;;9.60;2.90;;;12.10;58.00;;;;;;5052327;28;20970;-86
2021/10/22 10:25:06;;;;;;;14.63;2.63;;;12.50;56.60;;;;;;5052197;28;20451;-86
2021/10/22 10:27:45;;;;;;;7.00;2.37;;;12.70;55.10;;;;;;5052119;28;20467;-87
2021/10/22 10:30:15;;;;;;;11.63;3.77;;;12.50;55.00;;;;;;5052289;28;20456;-88
2021/10/22 10:32:43;;;;;;;10.50;2.63;;;13.00;53.80;;;;;;5053896;28;20458;-88
2021/10/22 10:35:16;;;;;;;10.40;2.33;;;13.30;52.50;;;;;;5056280;28;20505;-88
2021/10/22 10:37:49;;;;;;;10.13;3.43;;;13.10;49.60;;;;;;5056237;28;20475;-87
2021/10/22 10:40:23;;;;;;;11.27;2.20;;;13.70;49.60;;;;;;5055991;28;20463;-86
2021/10/22 10:42:52;;;;;;;11.23;3.00;;;13.60;47.40;;;;;;5056547;28;20465;-88
2021/10/22 10:45:44;;;;;;;10.17;2.73;;;14.10;47.80;;;;;;5055295;28;20532;-88
2021/10/22 10:48:18;;;;;;;10.03;3.33;;;13.90;45.40;;;;;;5053729;28;20550;-88
2021/10/22 10:50:53;;;;;;;8.13;2.30;;;14.50;47.40;;;;;;5056343;28;20546;-87
2021/10/22 10:53:32;;;;;;;12.70;3.20;;;14.50;42.90;;;;;;5056142;28;20533;-89
2021/10/22 10:56:01;;;;;;;8.90;2.10;;;14.70;44.50;;;;;;5055769;28;20607;-87
2021/10/22 10:58:28;;;;;;;14.20;2.83;;;14.70;40.60;;;;;;5055947;28;20543;-89
2021/10/22 11:01:03;;;;;;;9.63;2.83;;;14.90;41.50;;;;;;5055919;28;20457;-88
2021/10/22 11:03:44;;;;;;;10.83;2.80;;;14.70;40.50;;;;;;5056814;28;20457;-86
2021/10/22 11:06:33;;;;;;;13.47;2.83;;;14.00;40.60;;;;;;5056746;28;20449;-88
2021/10/22 11:09:00;;;;;;;10.10;2.50;;;14.20;41.70;;;;;;5055675;28;20462;-86
2021/10/22 11:11:41;;;;;;;10.50;2.80;;;14.40;45.40;;;;;;5056270;28;20522;-88
2021/10/22 11:14:15;;;;;;;12.37;4.10;;;14.40;43.00;;;;;;5055405;28;20541;-90
2021/10/22 11:17:01;;;;;;;11.43;2.70;;;14.00;43.60;;;;;;5054602;28;20455;-89
2021/10/22 11:19:36;;;;;;;10.20;2.47;;;13.60;43.40;;;;;;5055303;28;20513;-87
2021/10/22 11:22:13;;;;;;;9.07;2.40;;;13.80;41.00;;;;;;5055085;28;20869;-89
2021/10/22 11:24:43;;;;;;;8.90;2.47;;;13.80;41.70;;;;;;5056113;28;21067;-89
2021/10/22 11:27:13;;;;;;;13.40;2.93;;;14.30;39.60;;;;;;5055651;28;20977;-88
2021/10/22 11:29:43;;;;;;;11.73;3.00;;;13.60;39.70;;;;;;5054742;28;20820;-88
2021/10/22 11:32:11;;;;;;;10.10;2.97;;;13.60;44.30;;;;;;5055030;28;20455;-90
2021/10/22 11:34:46;;;;;;;10.87;2.30;;;13.60;40.90;;;;;;5054914;28;20533;-88
2021/10/22 11:37:18;;;;;;;9.03;2.20;;;14.30;42.10;;;;;;5055099;28;20439;-87
2021/10/22 11:39:49;;;;;;;11.77;2.20;;;14.30;39.00;;;;;;5055366;28;20468;-90
2021/10/22 11:42:24;;;;;;;15.17;3.70;;;14.20;40.00;;;;;;5054788;28;20491;-89
2021/10/22 11:44:56;;;;;;;11.53;2.77;;;14.10;40.80;;;;;;5053516;28;20803;-88
2021/10/22 11:47:30;;;;;;;8.90;2.40;;;14.00;42.70;;;;;;5054446;28;20969;-88
2021/10/22 11:50:08;;;;;;;10.47;2.30;;;13.60;43.40;;;;;;5054604;28;20459;-90
2021/10/22 11:52:36;;;;;;;10.97;2.70;;;13.20;45.70;;;;;;5055050;28;20799;-90
2021/10/22 11:55:05;;;;;;;12.07;2.80;;;13.50;45.80;;;;;;5297340;22;20494;-89
2021/10/22 11:57:38;;;;;;;16.67;3.80;;;13.30;43.30;;;;;;5075700;28;20483;-89
2021/10/22 12:00:09;;;;;;;8.33;2.53;;;12.90;44.00;;;;;;5073581;28;20822;-89
2021/10/22 12:02:38;;;;;;;11.53;2.67;;;12.70;45.90;;;;;;5074512;28;20487;-88
2021/10/22 12:05:08;;;;;;;8.80;2.77;;;13.10;46.80;;;;;;5075218;28;20454;-88
2021/10/22 12:07:38;;;;;;;10.53;2.70;;;13.10;45.50;;;;;;5074338;28;20534;-85
2021/10/22 12:10:08;;;;;;;13.03;3.10;;;12.80;46.90;;;;;;5074534;28;20451;-88
2021/10/22 12:12:37;;;;;;;12.80;3.60;;;13.00;47.60;;;;;;5074877;28;20486;-86
2021/10/22 12:15:05;;;;;;;8.60;3.17;;;12.80;48.40;;;;;;5074286;28;20475;-89
2021/10/22 12:17:33;;;;;;;10.93;2.30;;;12.70;48.10;;;;;;5074037;28;20527;-87
2021/10/22 12:20:05;;;;;;;15.40;2.60;;;12.50;51.10;;;;;;5073914;28;20462;-89
2021/10/22 12:22:38;;;;;;;7.67;2.57;;;12.50;54.50;;;;;;5022671;28;20913;-90
2021/10/22 12:25:16;;;;;;;7.10;2.60;;;12.20;53.20;;;;;;5069898;28;20480;-90
2021/10/22 12:27:47;;;;;;;10.17;2.53;;;12.10;56.80;;;;;;5053784;28;20999;-91
2021/10/22 12:30:16;;;;;;;11.00;2.80;;;12.10;57.50;;;;;;5053063;28;20453;-90
2021/10/22 12:32:47;;;;;;;13.00;2.93;;;11.90;58.80;;;;;;5053863;28;20467;-88
2021/10/22 12:35:18;;;;;;;15.50;3.53;;;11.80;62.60;;;;;;5053639;28;20547;-89
2021/10/22 12:38:00;;;;;;;9.77;2.43;;;11.80;59.60;;;;;;5053351;28;20478;-91
2021/10/22 12:40:30;;;;;;;11.73;3.80;;;11.80;62.60;;;;;;5053117;28;20475;-90
2021/10/22 12:43:18;;;;;;;11.73;2.73;;;11.90;61.10;;;;;;5053349;28;20974;-90
2021/10/22 12:45:59;;;;;;;12.73;3.47;;;11.90;60.60;;;;;;5052627;28;20934;-91
2021/10/22 12:48:32;;;;;;;14.90;2.90;;;12.00;60.10;;;;;;5053379;28;20452;-92
2021/10/22 12:51:04;;;;;;;10.73;2.43;;;12.10;57.50;;;;;;5053494;28;20544;-89
2021/10/22 12:53:35;;;;;;;13.73;2.80;;;12.20;58.60;;;;;;5053316;28;20466;-90